createdAt,value
2019-01-30T00:00:32.409Z,14.00
2019-01-30T00:03:01.502Z,14.23
2019-01-30T00:05:30.023Z,13.20
2019-01-30T00:07:58.545Z,13.17
2019-01-30T00:10:27.061Z,14.00
2019-01-30T00:12:55.528Z,12.20
2019-01-30T00:15:24.138Z,12.17
2019-01-30T00:17:52.653Z,12.20
2019-01-30T00:20:21.175Z,13.00
2019-01-30T00:22:49.639Z,12.67
2019-01-30T00:25:18.090Z,11.90
2019-01-30T00:27:46.557Z,11.50
2019-01-30T00:30:20.200Z,10.90
2019-01-30T00:32:48.985Z,10.80
2019-01-30T00:35:17.436Z,11.13
2019-01-30T00:37:45.950Z,11.90
2019-01-30T00:40:16.826Z,12.53
2019-01-30T00:42:45.345Z,12.13
2019-01-30T00:45:18.644Z,11.40
2019-01-30T00:47:47.163Z,11.70
2019-01-30T00:50:18.139Z,10.80
2019-01-30T00:52:46.649Z,11.80
2019-01-30T00:55:15.758Z,11.03
2019-01-30T00:57:44.361Z,11.53
2019-01-30T01:00:27.706Z,11.90
2019-01-30T01:02:56.506Z,13.10
2019-01-30T01:05:25.027Z,13.73
2019-01-30T01:07:53.625Z,14.40
2019-01-30T01:10:22.610Z,13.90
2019-01-30T01:12:51.481Z,13.20
2019-01-30T01:15:20.011Z,12.40
2019-01-30T01:18:07.999Z,12.77
2019-01-30T01:20:36.442Z,13.10
2019-01-30T01:23:06.049Z,11.90
2019-01-30T01:25:34.509Z,11.10
2019-01-30T01:28:02.958Z,11.70
2019-01-30T01:30:31.513Z,10.33
2019-01-30T01:33:00.018Z,10.73
2019-01-30T01:35:28.533Z,10.90
2019-01-30T01:37:56.995Z,10.23
2019-01-30T01:40:25.446Z,11.40
2019-01-30T01:42:53.907Z,11.13
2019-01-30T01:45:24.294Z,10.60
2019-01-30T01:47:52.892Z,10.63
2019-01-30T01:50:22.573Z,10.40
2019-01-30T01:52:51.237Z,11.40
2019-01-30T01:55:39.074Z,11.67
2019-01-30T01:58:07.538Z,10.60
2019-01-30T02:00:36.226Z,11.90
2019-01-30T02:03:04.959Z,11.63
2019-01-30T02:05:33.421Z,11.43
2019-01-30T02:08:01.873Z,11.43
2019-01-30T02:10:30.475Z,8.87
2019-01-30T02:12:58.921Z,11.40
2019-01-30T02:15:27.394Z,10.73
2019-01-30T02:17:55.841Z,9.20
2019-01-30T02:20:27.193Z,7.33
2019-01-30T02:22:55.785Z,8.80
2019-01-30T02:25:24.375Z,8.37
2019-01-30T02:27:52.834Z,9.07
2019-01-30T02:30:29.327Z,9.00
2019-01-30T02:32:57.857Z,8.87
2019-01-30T02:35:26.439Z,8.37
2019-01-30T02:37:54.889Z,8.07
2019-01-30T02:40:24.853Z,8.83
2019-01-30T02:42:53.372Z,8.83
2019-01-30T02:45:23.674Z,9.60
2019-01-30T02:47:52.289Z,9.70
2019-01-30T02:50:21.088Z,10.90
2019-01-30T02:52:49.554Z,10.97
2019-01-30T02:55:19.221Z,11.50
2019-01-30T02:57:47.929Z,12.13
2019-01-30T03:00:27.219Z,12.70
2019-01-30T03:02:55.817Z,12.30
2019-01-30T03:05:24.423Z,11.30
2019-01-30T03:07:52.897Z,11.00
2019-01-30T03:10:22.679Z,11.90
2019-01-30T03:12:51.266Z,12.20
2019-01-30T03:15:20.787Z,12.00
2019-01-30T03:17:49.229Z,11.83
2019-01-30T03:20:20.203Z,12.13
2019-01-30T03:22:49.026Z,12.17
2019-01-30T03:25:19.298Z,11.23
2019-01-30T03:27:47.898Z,12.80
2019-01-30T03:30:27.661Z,12.70
2019-01-30T03:32:56.499Z,11.90
2019-01-30T03:35:25.194Z,12.03
2019-01-30T03:37:53.798Z,12.53
2019-01-30T03:40:22.714Z,11.53
2019-01-30T03:42:51.321Z,10.90
2019-01-30T03:45:22.543Z,13.07
2019-01-30T03:47:51.186Z,13.30
2019-01-30T03:50:19.830Z,12.70
2019-01-30T03:52:48.353Z,12.03
2019-01-30T03:55:18.525Z,13.37
2019-01-30T03:57:47.047Z,13.80
2019-01-30T04:00:18.220Z,11.57
2019-01-30T04:02:46.735Z,12.10
2019-01-30T04:05:15.338Z,11.87
2019-01-30T04:07:43.778Z,13.20
2019-01-30T04:10:21.513Z,11.97
2019-01-30T04:12:50.101Z,11.87
2019-01-30T04:15:18.725Z,13.47
2019-01-30T04:17:47.303Z,14.97
2019-01-30T04:20:17.903Z,17.60
2019-01-30T04:22:46.505Z,15.07
2019-01-30T04:25:15.299Z,14.07
2019-01-30T04:27:43.757Z,16.80
2019-01-30T04:30:15.248Z,11.47
2019-01-30T04:32:43.698Z,12.10
2019-01-30T04:35:12.298Z,11.33
2019-01-30T04:37:40.832Z,11.80
2019-01-30T04:40:12.730Z,12.03
2019-01-30T04:42:41.175Z,11.27
2019-01-30T04:45:12.977Z,9.83
2019-01-30T04:47:41.426Z,12.07
2019-01-30T04:50:10.287Z,13.67
2019-01-30T04:52:38.858Z,12.97
2019-01-30T04:55:09.406Z,13.23
2019-01-30T04:57:37.849Z,11.80
2019-01-30T05:00:11.941Z,12.70
2019-01-30T05:02:40.403Z,13.17
2019-01-30T05:05:10.807Z,12.40
2019-01-30T05:07:39.270Z,14.23
2019-01-30T05:10:10.457Z,18.10
2019-01-30T05:12:39.062Z,14.90
2019-01-30T05:15:16.888Z,16.17
2019-01-30T05:17:45.416Z,12.10
2019-01-30T05:20:19.161Z,12.50
2019-01-30T05:22:48.221Z,13.60
2019-01-30T05:25:17.386Z,12.47
2019-01-30T05:27:45.901Z,11.40
2019-01-30T05:30:19.953Z,11.83
2019-01-30T05:32:48.482Z,11.83
2019-01-30T05:35:17.005Z,12.90
2019-01-30T05:37:45.541Z,12.80
2019-01-30T05:40:16.550Z,12.27
2019-01-30T05:42:45.071Z,12.70
2019-01-30T05:45:15.849Z,13.10
2019-01-30T05:47:44.434Z,13.43
2019-01-30T05:50:14.142Z,12.77
2019-01-30T05:52:42.736Z,13.00
2019-01-30T05:55:13.935Z,12.30
2019-01-30T05:57:42.577Z,11.90
2019-01-30T06:00:16.738Z,13.00
2019-01-30T06:02:45.183Z,13.70
2019-01-30T06:05:13.788Z,14.00
2019-01-30T06:07:42.237Z,13.10
2019-01-30T06:10:11.342Z,13.20
2019-01-30T06:12:39.799Z,14.17
2019-01-30T06:15:11.399Z,14.50
2019-01-30T06:17:39.854Z,14.93
2019-01-30T06:20:20.010Z,14.93
2019-01-30T06:22:48.539Z,13.70
2019-01-30T06:25:17.193Z,14.50
2019-01-30T06:27:45.854Z,14.20
2019-01-30T06:30:17.030Z,15.03
2019-01-30T06:32:45.828Z,15.27
2019-01-30T06:35:14.700Z,15.30
2019-01-30T06:37:43.230Z,17.60
2019-01-30T06:40:23.275Z,16.93
2019-01-30T06:42:51.789Z,16.63
2019-01-30T06:45:20.321Z,18.20
2019-01-30T06:47:48.837Z,17.93
2019-01-30T06:50:17.287Z,17.37
2019-01-30T06:52:45.816Z,15.93
2019-01-30T06:55:14.278Z,16.27
2019-01-30T06:57:42.803Z,21.40
2019-01-30T07:00:19.976Z,23.77
2019-01-30T07:02:48.602Z,25.77
2019-01-30T07:05:17.202Z,45.43
2019-01-30T07:07:45.654Z,24.33
2019-01-30T07:10:19.517Z,16.77
2019-01-30T07:12:48.034Z,17.90
2019-01-30T07:15:16.729Z,16.77
2019-01-30T07:17:45.334Z,15.80
2019-01-30T07:20:15.633Z,16.83
2019-01-30T07:22:44.162Z,16.37
2019-01-30T07:25:20.614Z,14.17
2019-01-30T07:27:49.674Z,17.23
2019-01-30T07:30:24.054Z,16.20
2019-01-30T07:32:52.510Z,16.87
2019-01-30T07:35:21.097Z,17.00
2019-01-30T07:37:49.629Z,15.93
2019-01-30T07:40:18.150Z,15.00
2019-01-30T07:42:46.633Z,17.30
2019-01-30T07:45:20.444Z,14.67
2019-01-30T07:47:48.951Z,14.70
2019-01-30T07:50:17.478Z,14.50
2019-01-30T07:52:46.086Z,13.93
2019-01-30T07:55:16.487Z,13.07
2019-01-30T07:57:45.274Z,13.90
2019-01-30T08:00:17.906Z,13.57
2019-01-30T08:02:52.932Z,12.73
2019-01-30T08:05:16.938Z,12.27
2019-01-30T08:07:45.396Z,13.30
2019-01-30T08:10:15.488Z,13.73
2019-01-30T08:12:44.186Z,13.00
2019-01-30T08:15:15.071Z,12.20
2019-01-30T08:17:43.657Z,13.27
2019-01-30T08:20:14.865Z,12.90
2019-01-30T08:22:43.351Z,12.03
2019-01-30T08:25:15.146Z,11.20
2019-01-30T08:27:43.748Z,12.27
2019-01-30T08:30:22.262Z,12.33
2019-01-30T08:32:46.019Z,12.57
2019-01-30T08:35:15.638Z,12.90
2019-01-30T08:37:45.916Z,12.23
2019-01-30T08:40:14.558Z,13.27
2019-01-30T08:42:43.007Z,12.10
2019-01-30T08:45:16.945Z,13.00
2019-01-30T08:47:45.465Z,10.90
2019-01-30T08:50:15.140Z,12.80
2019-01-30T08:52:43.583Z,11.70
2019-01-30T08:55:13.766Z,11.77
2019-01-30T08:57:42.862Z,11.67
2019-01-30T09:00:17.426Z,11.93
2019-01-30T09:02:46.027Z,11.67
2019-01-30T09:05:14.811Z,12.23
2019-01-30T09:07:44.611Z,11.17
2019-01-30T09:10:16.437Z,12.83
2019-01-30T09:12:44.958Z,12.87
2019-01-30T09:15:16.038Z,11.70
2019-01-30T09:17:44.562Z,11.77
2019-01-30T09:20:18.634Z,12.77
2019-01-30T09:22:47.146Z,11.50
2019-01-30T09:25:17.751Z,12.33
2019-01-30T09:27:46.341Z,12.17
2019-01-30T09:30:22.950Z,11.03
2019-01-30T09:32:51.405Z,12.40
2019-01-30T09:35:19.924Z,12.87
2019-01-30T09:37:48.446Z,12.33
2019-01-30T09:40:19.047Z,12.47
2019-01-30T09:42:47.649Z,12.30
2019-01-30T09:45:18.316Z,11.60
2019-01-30T09:47:46.892Z,11.00
2019-01-30T09:50:18.162Z,11.17
2019-01-30T09:52:46.674Z,11.70
2019-01-30T09:55:16.276Z,12.73
2019-01-30T09:57:44.739Z,11.57
2019-01-30T10:00:16.601Z,10.80
2019-01-30T10:02:45.134Z,11.03
2019-01-30T10:05:14.355Z,11.50
2019-01-30T10:07:42.886Z,11.40
2019-01-30T10:10:14.429Z,12.00
2019-01-30T10:12:42.886Z,11.27
2019-01-30T10:15:14.972Z,11.60
2019-01-30T10:17:43.427Z,12.10
2019-01-30T10:20:15.118Z,12.30
2019-01-30T10:22:43.631Z,11.37
2019-01-30T10:25:14.098Z,11.60
2019-01-30T10:27:42.542Z,11.90
2019-01-30T10:30:28.954Z,11.73
2019-01-30T10:32:57.462Z,9.97
2019-01-30T10:35:26.316Z,10.60
2019-01-30T10:37:55.438Z,11.90
2019-01-30T10:40:24.023Z,11.63
2019-01-30T10:42:54.018Z,10.60
2019-01-30T10:45:23.355Z,11.47
2019-01-30T10:47:51.811Z,11.20
2019-01-30T10:50:25.387Z,11.00
2019-01-30T10:52:53.829Z,11.97
2019-01-30T10:55:27.052Z,9.50
2019-01-30T10:57:57.629Z,10.37
2019-01-30T11:00:28.923Z,9.97
2019-01-30T11:02:57.444Z,11.67
2019-01-30T11:05:26.134Z,8.47
2019-01-30T11:07:54.725Z,8.43
2019-01-30T11:10:23.253Z,10.10
2019-01-30T11:12:51.780Z,8.10
2019-01-30T11:15:23.378Z,8.53
2019-01-30T11:17:51.913Z,10.43
2019-01-30T11:20:22.061Z,9.63
2019-01-30T11:22:53.440Z,10.30
2019-01-30T11:25:27.175Z,9.83
2019-01-30T11:27:55.706Z,8.73
2019-01-30T11:30:24.384Z,9.43
2019-01-30T11:32:55.238Z,7.83
2019-01-30T11:35:23.271Z,9.10
2019-01-30T11:37:52.278Z,9.27
2019-01-30T11:40:22.179Z,10.07
2019-01-30T11:42:50.710Z,11.50
2019-01-30T11:45:24.705Z,11.70
2019-01-30T11:47:53.155Z,10.30
2019-01-30T11:50:21.748Z,8.83
2019-01-30T11:52:50.250Z,8.87
2019-01-30T11:55:19.554Z,9.40
2019-01-30T11:57:48.260Z,8.10
2019-01-30T12:00:27.023Z,9.60
2019-01-30T12:02:55.542Z,8.93
2019-01-30T12:05:24.123Z,9.37
2019-01-30T12:07:52.573Z,9.23
2019-01-30T12:10:21.158Z,11.23
2019-01-30T12:12:49.619Z,11.23
2019-01-30T12:15:20.678Z,10.07
2019-01-30T12:17:49.138Z,11.13
2019-01-30T12:20:17.722Z,10.40
2019-01-30T12:22:46.241Z,10.93
2019-01-30T12:25:19.683Z,9.70
2019-01-30T12:27:50.797Z,11.17
2019-01-30T12:30:29.206Z,9.83
2019-01-30T12:32:57.798Z,10.90
2019-01-30T12:35:26.393Z,10.10
2019-01-30T12:37:54.849Z,9.87
2019-01-30T12:40:24.646Z,10.37
2019-01-30T12:42:53.403Z,10.40
2019-01-30T12:45:33.917Z,10.57
2019-01-30T12:48:02.518Z,10.80
2019-01-30T12:50:31.096Z,11.03
2019-01-30T12:52:59.908Z,11.10
2019-01-30T12:55:29.598Z,10.50
2019-01-30T12:57:58.450Z,10.77
2019-01-30T13:00:35.570Z,11.30
2019-01-30T13:03:04.270Z,11.13
2019-01-30T13:05:33.017Z,12.97
2019-01-30T13:08:01.532Z,12.23
2019-01-30T13:10:29.985Z,11.60
2019-01-30T13:12:58.449Z,11.57
2019-01-30T13:15:28.629Z,13.70
2019-01-30T13:17:57.627Z,13.40
2019-01-30T13:20:26.139Z,12.80
2019-01-30T13:22:54.744Z,12.33
2019-01-30T13:25:29.048Z,12.10
2019-01-30T13:27:57.715Z,12.10
2019-01-30T13:30:28.698Z,10.63
2019-01-30T13:32:57.230Z,12.30
2019-01-30T13:35:25.758Z,11.80
2019-01-30T13:37:54.337Z,11.40
2019-01-30T13:40:25.986Z,11.97
2019-01-30T13:42:54.425Z,11.67
2019-01-30T13:45:22.941Z,13.60
2019-01-30T13:47:51.398Z,13.40
2019-01-30T13:50:22.314Z,13.27
2019-01-30T13:52:50.908Z,12.40
2019-01-30T13:55:19.564Z,12.00
2019-01-30T13:57:48.069Z,14.13
2019-01-30T14:00:22.408Z,11.17
2019-01-30T14:02:50.915Z,12.30
2019-01-30T14:05:19.523Z,11.67
2019-01-30T14:07:48.473Z,12.30
2019-01-30T14:10:17.101Z,13.37
2019-01-30T14:12:45.665Z,12.27
2019-01-30T14:15:20.494Z,11.43
2019-01-30T14:17:49.011Z,12.10
2019-01-30T14:20:18.511Z,12.47
2019-01-30T14:22:47.273Z,11.87
2019-01-30T14:25:16.702Z,11.87
2019-01-30T14:27:45.313Z,13.20
2019-01-30T14:30:25.255Z,10.93
2019-01-30T14:32:54.131Z,11.50
2019-01-30T14:35:23.617Z,13.10
2019-01-30T14:37:52.190Z,11.63
2019-01-30T14:40:21.958Z,10.17
2019-01-30T14:42:50.679Z,11.83
2019-01-30T14:45:19.998Z,13.70
2019-01-30T14:47:50.935Z,12.83
2019-01-30T14:50:21.487Z,11.77
2019-01-30T14:52:50.082Z,11.07
2019-01-30T14:55:18.854Z,12.50
2019-01-30T14:57:47.859Z,10.93
2019-01-30T15:00:25.059Z,11.50
2019-01-30T15:02:53.612Z,12.83
2019-01-30T15:05:23.365Z,9.93
2019-01-30T15:07:51.962Z,10.83
2019-01-30T15:10:22.245Z,10.37
2019-01-30T15:12:50.933Z,10.47
2019-01-30T15:15:21.707Z,9.90
2019-01-30T15:17:50.242Z,10.47
2019-01-30T15:20:21.213Z,8.80
2019-01-30T15:22:50.558Z,9.40
2019-01-30T15:25:21.044Z,9.63
2019-01-30T15:27:49.728Z,8.97
2019-01-30T15:30:26.986Z,11.17
2019-01-30T15:32:55.586Z,11.53
2019-01-30T15:35:33.127Z,11.00
2019-01-30T15:37:54.594Z,12.20
2019-01-30T15:40:28.146Z,11.50
2019-01-30T15:42:56.607Z,10.20
2019-01-30T15:45:25.814Z,10.87
2019-01-30T15:47:54.393Z,10.97
2019-01-30T15:50:25.653Z,11.47
2019-01-30T15:52:54.733Z,10.37
2019-01-30T15:55:23.338Z,10.83
2019-01-30T15:57:54.714Z,11.50
2019-01-30T16:00:29.305Z,11.77
2019-01-30T16:02:56.668Z,30.63
2019-01-30T16:05:25.255Z,12.73
2019-01-30T16:07:53.783Z,11.27
2019-01-30T16:10:22.233Z,13.47
2019-01-30T16:12:50.695Z,11.43
2019-01-30T16:15:37.611Z,11.90
2019-01-30T16:18:06.734Z,12.10
2019-01-30T16:20:36.802Z,12.87
2019-01-30T16:23:05.803Z,12.00
2019-01-30T16:25:34.276Z,11.27
2019-01-30T16:28:02.923Z,11.73
2019-01-30T16:30:31.522Z,10.00
2019-01-30T16:33:00.046Z,11.00
2019-01-30T16:35:30.944Z,10.70
2019-01-30T16:37:59.639Z,11.37
2019-01-30T16:40:28.383Z,12.23
2019-01-30T16:42:57.005Z,12.97
2019-01-30T16:45:28.320Z,11.50
2019-01-30T16:47:57.054Z,10.97
2019-01-30T16:50:25.589Z,11.47
2019-01-30T16:52:54.170Z,12.00
2019-01-30T16:55:23.082Z,11.43
2019-01-30T16:57:51.767Z,11.40
2019-01-30T17:00:26.537Z,11.80
2019-01-30T17:02:56.071Z,10.97
2019-01-30T17:05:24.661Z,12.00
2019-01-30T17:07:53.358Z,11.23
2019-01-30T17:10:21.949Z,11.50
2019-01-30T17:12:50.425Z,11.73
2019-01-30T17:15:29.945Z,12.37
2019-01-30T17:17:58.489Z,11.20
2019-01-30T17:20:32.232Z,11.13
2019-01-30T17:23:00.750Z,11.27
2019-01-30T17:25:29.554Z,11.27
2019-01-30T17:27:58.010Z,11.20
2019-01-30T17:30:32.073Z,10.70
2019-01-30T17:33:01.035Z,10.80
2019-01-30T17:35:29.630Z,11.03
2019-01-30T17:37:58.157Z,10.93
2019-01-30T17:40:27.934Z,11.87
2019-01-30T17:42:56.460Z,13.90
2019-01-30T17:45:25.046Z,11.87
2019-01-30T17:47:53.644Z,12.27
2019-01-30T17:50:29.365Z,11.87
2019-01-30T17:52:57.891Z,11.43
2019-01-30T17:55:26.702Z,12.30
2019-01-30T17:57:55.482Z,12.80
2019-01-30T18:00:46.908Z,12.23
2019-01-30T18:03:15.682Z,12.87
2019-01-30T18:05:44.198Z,12.90
2019-01-30T18:08:12.721Z,11.53
2019-01-30T18:10:41.165Z,10.53
2019-01-30T18:13:09.698Z,11.37
2019-01-30T18:15:38.150Z,11.20
2019-01-30T18:18:06.735Z,11.27
2019-01-30T18:20:35.271Z,11.70
2019-01-30T18:23:03.785Z,11.97
2019-01-30T18:25:32.234Z,11.20
2019-01-30T18:28:00.765Z,11.57
2019-01-30T18:30:29.310Z,12.03
2019-01-30T18:32:57.762Z,15.67
2019-01-30T18:35:26.211Z,16.07
2019-01-30T18:37:55.112Z,18.77
2019-01-30T18:40:28.458Z,19.57
2019-01-30T18:42:57.204Z,19.40
2019-01-30T18:45:27.014Z,20.30
2019-01-30T18:47:55.945Z,22.43
2019-01-30T18:50:26.435Z,19.90
2019-01-30T18:52:55.027Z,20.90
2019-01-30T18:55:24.075Z,21.47
2019-01-30T18:57:52.742Z,21.30
2019-01-30T19:00:30.080Z,21.90
2019-01-30T19:03:00.371Z,22.13
2019-01-30T19:05:29.971Z,22.10
2019-01-30T19:07:58.488Z,22.60
2019-01-30T19:10:27.011Z,23.53
2019-01-30T19:12:55.461Z,22.10
2019-01-30T19:15:28.095Z,21.80
2019-01-30T19:17:56.693Z,20.60
2019-01-30T19:20:30.841Z,19.90
2019-01-30T19:22:59.390Z,18.77
2019-01-30T19:25:28.064Z,18.87
2019-01-30T19:27:56.605Z,18.20
2019-01-30T19:30:30.347Z,21.30
2019-01-30T19:32:59.050Z,18.50
2019-01-30T19:35:27.671Z,20.13
2019-01-30T19:37:56.206Z,19.97
2019-01-30T19:40:24.800Z,20.90
2019-01-30T19:42:53.386Z,20.40
2019-01-30T19:45:24.385Z,19.40
2019-01-30T19:47:53.052Z,18.27
2019-01-30T19:50:26.885Z,17.80
2019-01-30T19:52:55.547Z,15.47
2019-01-30T19:55:24.248Z,16.37
2019-01-30T19:57:53.330Z,15.97
2019-01-30T20:00:30.610Z,16.60
2019-01-30T20:03:00.278Z,20.27
2019-01-30T20:05:28.798Z,19.63
2019-01-30T20:07:57.329Z,18.87
2019-01-30T20:10:28.981Z,19.23
2019-01-30T20:12:57.928Z,19.53
2019-01-30T20:15:26.873Z,18.83
2019-01-30T20:17:55.391Z,20.67
2019-01-30T20:20:23.986Z,20.23
2019-01-30T20:22:52.499Z,19.93
2019-01-30T20:25:26.556Z,20.57
2019-01-30T20:27:55.074Z,19.27
2019-01-30T20:30:25.118Z,19.33
2019-01-30T20:32:53.638Z,18.77
2019-01-30T20:35:22.224Z,19.40
2019-01-30T20:37:50.686Z,18.13
2019-01-30T20:40:21.294Z,19.30
2019-01-30T20:42:52.606Z,21.53
2019-01-30T20:45:19.999Z,20.77
2019-01-30T20:47:48.537Z,18.90
2019-01-30T20:50:25.637Z,19.07
2019-01-30T20:52:54.237Z,20.07
2019-01-30T20:55:22.757Z,18.97
2019-01-30T20:57:51.206Z,19.23
2019-01-30T21:00:25.436Z,18.73
2019-01-30T21:02:53.947Z,18.73
2019-01-30T21:05:22.530Z,20.00
2019-01-30T21:07:51.063Z,20.07
2019-01-30T21:10:28.153Z,18.90
2019-01-30T21:12:56.686Z,19.33
2019-01-30T21:15:25.386Z,20.27
2019-01-30T21:17:53.961Z,20.20
2019-01-30T21:20:22.509Z,18.90
2019-01-30T21:22:50.958Z,19.10
2019-01-30T21:25:20.971Z,19.60
2019-01-30T21:27:50.253Z,18.50
2019-01-30T21:30:24.222Z,18.90
2019-01-30T21:32:52.746Z,19.70
2019-01-30T21:35:21.346Z,18.40
2019-01-30T21:37:49.881Z,18.97
2019-01-30T21:40:19.624Z,17.63
2019-01-30T21:42:48.670Z,18.17
2019-01-30T21:45:19.074Z,17.33
2019-01-30T21:47:47.671Z,19.50
2019-01-30T21:50:16.365Z,19.00
2019-01-30T21:52:44.898Z,16.83
2019-01-30T21:55:24.466Z,18.73
2019-01-30T21:57:53.058Z,18.90
2019-01-30T22:00:29.555Z,18.63
2019-01-30T22:02:58.157Z,17.67
2019-01-30T22:05:26.918Z,17.80
2019-01-30T22:08:01.091Z,17.50
2019-01-30T22:10:27.809Z,19.63
2019-01-30T22:12:56.326Z,19.73
2019-01-30T22:15:25.207Z,16.90
2019-01-30T22:17:53.842Z,18.73
2019-01-30T22:20:24.134Z,17.93
2019-01-30T22:22:52.797Z,18.67
2019-01-30T22:25:22.631Z,19.43
2019-01-30T22:27:51.216Z,17.43
2019-01-30T22:30:24.802Z,18.27
2019-01-30T22:32:53.317Z,18.10
2019-01-30T22:35:21.979Z,19.60
2019-01-30T22:37:50.689Z,17.93
2019-01-30T22:40:19.301Z,18.27
2019-01-30T22:42:47.814Z,17.53
2019-01-30T22:45:21.263Z,17.30
2019-01-30T22:47:49.867Z,17.30
2019-01-30T22:50:19.947Z,18.23
2019-01-30T22:52:48.545Z,16.60
2019-01-30T22:55:18.963Z,18.30
2019-01-30T22:57:50.604Z,17.40
2019-01-30T23:00:31.292Z,16.60
2019-01-30T23:02:59.953Z,17.70
2019-01-30T23:05:37.216Z,17.67
2019-01-30T23:08:07.205Z,17.27
2019-01-30T23:10:50.399Z,19.20
2019-01-30T23:13:33.715Z,17.60
2019-01-30T23:16:17.169Z,16.20
2019-01-30T23:19:00.422Z,16.83
2019-01-30T23:21:34.922Z,16.80
2019-01-30T23:24:12.181Z,18.20
2019-01-30T23:26:46.399Z,17.03
2019-01-30T23:29:48.175Z,19.87
2019-01-30T23:32:49.800Z,19.93
2019-01-30T23:35:24.242Z,19.30
2019-01-30T23:37:55.810Z,19.27
2019-01-30T23:40:51.182Z,19.40
2019-01-30T23:43:31.562Z,20.70
2019-01-30T23:46:05.813Z,19.87
2019-01-30T23:48:54.200Z,19.50
2019-01-30T23:51:42.095Z,21.53
2019-01-30T23:54:25.370Z,19.80
2019-01-30T23:56:56.914Z,19.27
2019-01-30T23:59:34.237Z,19.97
